sensor_id;sensor_type;location;lat;lon;timestamp;pressure;altitude;pressure_sealevel;temperature;humidity
70976;BME280;58635;51.198;6.010;2023-02-20T00:02:13;102499.25;;;10.30;61.07
70976;BME280;58635;51.198;6.010;2023-02-20T00:04:39;102494.75;;;10.32;61.28
70976;BME280;58635;51.198;6.010;2023-02-20T00:07:06;102490.66;;;10.30;61.10
70976;BME280;58635;51.198;6.010;2023-02-20T00:09:31;102484.16;;;10.25;61.20
70976;BME280;58635;51.198;6.010;2023-02-20T00:11:56;102472.19;;;10.24;61.37
70976;BME280;58635;51.198;6.010;2023-02-20T00:14:22;102474.63;;;10.26;61.42
70976;BME280;58635;51.198;6.010;2023-02-20T00:16:52;102480.31;;;10.30;61.15
70976;BME280;58635;51.198;6.010;2023-02-20T00:19:17;102477.06;;;10.28;61.29
70976;BME280;58635;51.198;6.010;2023-02-20T00:21:47;102472.19;;;10.24;61.13
70976;BME280;58635;51.198;6.010;2023-02-20T00:24:15;102468.00;;;10.23;61.49
70976;BME280;58635;51.198;6.010;2023-02-20T00:26:53;102471.25;;;10.25;61.22
70976;BME280;58635;51.198;6.010;2023-02-20T00:29:21;102485.94;;;10.25;61.27
70976;BME280;58635;51.198;6.010;2023-02-20T00:31:52;102468.66;;;10.25;61.18
70976;BME280;58635;51.198;6.010;2023-02-20T00:34:18;102457.50;;;10.25;61.33
70976;BME280;58635;51.198;6.010;2023-02-20T00:36:43;102470.28;;;10.27;61.32
70976;BME280;58635;51.198;6.010;2023-02-20T00:39:09;102454.91;;;10.25;61.19
70976;BME280;58635;51.198;6.010;2023-02-20T00:41:34;102450.53;;;10.25;61.39
70976;BME280;58635;51.198;6.010;2023-02-20T00:44:01;102451.19;;;10.28;61.57
70976;BME280;58635;51.198;6.010;2023-02-20T00:46:26;102437.31;;;10.29;61.40
70976;BME280;58635;51.198;6.010;2023-02-20T00:48:54;102429.28;;;10.32;61.40
70976;BME280;58635;51.198;6.010;2023-02-20T00:51:21;102426.38;;;10.35;61.36
70976;BME280;58635;51.198;6.010;2023-02-20T00:53:48;102433.66;;;10.39;61.24
70976;BME280;58635;51.198;6.010;2023-02-20T00:56:13;102419.13;;;10.38;61.26
70976;BME280;58635;51.198;6.010;2023-02-20T00:58:41;102408.19;;;10.44;61.08
70976;BME280;58635;51.198;6.010;2023-02-20T01:01:07;102404.63;;;10.45;60.85
70976;BME280;58635;51.198;6.010;2023-02-20T01:03:36;102418.38;;;10.46;60.87
70976;BME280;58635;51.198;6.010;2023-02-20T01:06:03;102411.56;;;10.45;60.73
70976;BME280;58635;51.198;6.010;2023-02-20T01:08:28;102403.16;;;10.43;61.09
70976;BME280;58635;51.198;6.010;2023-02-20T01:10:54;102402.34;;;10.42;60.98
70976;BME280;58635;51.198;6.010;2023-02-20T01:13:19;102407.66;;;10.41;61.00
70976;BME280;58635;51.198;6.010;2023-02-20T01:15:44;102411.19;;;10.40;61.08
70976;BME280;58635;51.198;6.010;2023-02-20T01:18:11;102412.97;;;10.39;61.06
70976;BME280;58635;51.198;6.010;2023-02-20T01:20:37;102416.03;;;10.35;60.90
70976;BME280;58635;51.198;6.010;2023-02-20T01:23:02;102397.56;;;10.30;60.97
70976;BME280;58635;51.198;6.010;2023-02-20T01:25:28;102400.44;;;10.27;61.26
70976;BME280;58635;51.198;6.010;2023-02-20T01:27:53;102400.91;;;10.22;61.38
70976;BME280;58635;51.198;6.010;2023-02-20T01:30:19;102399.25;;;10.21;61.31
70976;BME280;58635;51.198;6.010;2023-02-20T01:32:44;102395.22;;;10.18;61.49
70976;BME280;58635;51.198;6.010;2023-02-20T01:35:10;102398.88;;;10.16;61.43
70976;BME280;58635;51.198;6.010;2023-02-20T01:37:35;102395.94;;;10.11;61.46
70976;BME280;58635;51.198;6.010;2023-02-20T01:40:01;102397.22;;;9.89;62.27
70976;BME280;58635;51.198;6.010;2023-02-20T01:42:30;102406.59;;;9.90;62.37
70976;BME280;58635;51.198;6.010;2023-02-20T01:45:18;102410.16;;;10.07;61.85
70976;BME280;58635;51.198;6.010;2023-02-20T01:47:45;102402.91;;;10.10;61.85
70976;BME280;58635;51.198;6.010;2023-02-20T01:50:12;102400.97;;;10.12;61.60
70976;BME280;58635;51.198;6.010;2023-02-20T01:52:39;102408.56;;;10.14;61.57
70976;BME280;58635;51.198;6.010;2023-02-20T01:55:42;102400.00;;;10.13;61.64
70976;BME280;58635;51.198;6.010;2023-02-20T01:58:14;102403.56;;;10.12;61.58
70976;BME280;58635;51.198;6.010;2023-02-20T02:00:42;102401.28;;;10.09;61.61
70976;BME280;58635;51.198;6.010;2023-02-20T02:03:13;102401.94;;;10.11;61.70
70976;BME280;58635;51.198;6.010;2023-02-20T02:05:42;102396.09;;;10.09;61.64
70976;BME280;58635;51.198;6.010;2023-02-20T02:08:10;102385.13;;;10.07;61.71
70976;BME280;58635;51.198;6.010;2023-02-20T02:13:24;102375.34;;;10.01;61.73
70976;BME280;58635;51.198;6.010;2023-02-20T02:16:00;102367.75;;;10.00;61.80
70976;BME280;58635;51.198;6.010;2023-02-20T02:21:08;102362.28;;;10.03;61.95
70976;BME280;58635;51.198;6.010;2023-02-20T02:24:10;102349.50;;;10.01;61.68
70976;BME280;58635;51.198;6.010;2023-02-20T02:38:45;102311.44;;;9.85;62.03
70976;BME280;58635;51.198;6.010;2023-02-20T02:41:39;102309.81;;;9.84;61.90
70976;BME280;58635;51.198;6.010;2023-02-20T02:44:14;102306.44;;;9.84;62.00
70976;BME280;58635;51.198;6.010;2023-02-20T02:51:49;102301.19;;;9.76;62.20
70976;BME280;58635;51.198;6.010;2023-02-20T02:54:20;102298.31;;;9.79;62.08
70976;BME280;58635;51.198;6.010;2023-02-20T02:56:50;102307.19;;;9.76;62.29
70976;BME280;58635;51.198;6.010;2023-02-20T02:59:30;102301.03;;;9.77;62.09
70976;BME280;58635;51.198;6.010;2023-02-20T03:02:03;102294.59;;;9.81;62.22
70976;BME280;58635;51.198;6.010;2023-02-20T03:04:31;102297.72;;;9.85;62.04
70976;BME280;58635;51.198;6.010;2023-02-20T03:07:01;102292.53;;;9.85;62.08
70976;BME280;58635;51.198;6.010;2023-02-20T03:09:39;102271.50;;;9.80;61.89
70976;BME280;58635;51.198;6.010;2023-02-20T03:12:07;102270.53;;;9.81;62.02
70976;BME280;58635;51.198;6.010;2023-02-20T03:20:55;102267.22;;;9.71;62.21
70976;BME280;58635;51.198;6.010;2023-02-20T03:23:31;102270.94;;;9.68;62.28
70976;BME280;58635;51.198;6.010;2023-02-20T03:26:00;102261.72;;;9.65;62.23
70976;BME280;58635;51.198;6.010;2023-02-20T03:28:31;102272.88;;;9.66;62.23
70976;BME280;58635;51.198;6.010;2023-02-20T03:31:10;102271.41;;;9.63;62.24
70976;BME280;58635;51.198;6.010;2023-02-20T03:33:42;102270.22;;;9.58;62.44
70976;BME280;58635;51.198;6.010;2023-02-20T03:36:41;102267.78;;;9.56;62.51
70976;BME280;58635;51.198;6.010;2023-02-20T03:39:32;102269.41;;;9.57;62.61
70976;BME280;58635;51.198;6.010;2023-02-20T03:42:18;102270.09;;;9.59;62.45
70976;BME280;58635;51.198;6.010;2023-02-20T03:45:05;102278.19;;;9.64;62.54
70976;BME280;58635;51.198;6.010;2023-02-20T03:47:33;102269.31;;;9.67;62.47
70976;BME280;58635;51.198;6.010;2023-02-20T03:50:00;102274.19;;;9.70;62.39
70976;BME280;58635;51.198;6.010;2023-02-20T03:52:45;102272.22;;;9.64;62.41
70976;BME280;58635;51.198;6.010;2023-02-20T03:55:11;102270.59;;;9.63;62.58
70976;BME280;58635;51.198;6.010;2023-02-20T03:57:40;102274.63;;;9.65;62.53
70976;BME280;58635;51.198;6.010;2023-02-20T04:00:11;102269.63;;;9.64;62.44
70976;BME280;58635;51.198;6.010;2023-02-20T04:02:41;102278.03;;;9.66;62.57
70976;BME280;58635;51.198;6.010;2023-02-20T04:05:12;102266.88;;;9.65;62.49
70976;BME280;58635;51.198;6.010;2023-02-20T04:07:47;102270.94;;;9.68;62.32
70976;BME280;58635;51.198;6.010;2023-02-20T04:10:21;102265.41;;;9.63;62.56
70976;BME280;58635;51.198;6.010;2023-02-20T04:12:49;102259.75;;;9.59;62.61
70976;BME280;58635;51.198;6.010;2023-02-20T04:15:16;102261.50;;;9.59;62.72
70976;BME280;58635;51.198;6.010;2023-02-20T04:17:51;102264.91;;;9.59;62.79
70976;BME280;58635;51.198;6.010;2023-02-20T04:20:18;102262.78;;;9.55;62.91
70976;BME280;58635;51.198;6.010;2023-02-20T04:22:46;102267.28;;;9.53;63.05
70976;BME280;58635;51.198;6.010;2023-02-20T04:25:20;102272.28;;;9.54;63.12
70976;BME280;58635;51.198;6.010;2023-02-20T04:27:50;102276.66;;;9.54;63.15
70976;BME280;58635;51.198;6.010;2023-02-20T04:30:15;102271.31;;;9.55;63.21
70976;BME280;58635;51.198;6.010;2023-02-20T04:32:41;102278.78;;;9.58;63.23
70976;BME280;58635;51.198;6.010;2023-02-20T04:35:15;102273.47;;;9.60;63.20
70976;BME280;58635;51.198;6.010;2023-02-20T04:37:40;102281.88;;;9.62;63.22
70976;BME280;58635;51.198;6.010;2023-02-20T04:40:08;102275.44;;;9.66;63.07
70976;BME280;58635;51.198;6.010;2023-02-20T04:42:34;102273.38;;;9.70;62.99
70976;BME280;58635;51.198;6.010;2023-02-20T04:44:59;102282.44;;;9.74;63.00
70976;BME280;58635;51.198;6.010;2023-02-20T04:47:24;102276.47;;;9.73;63.05
70976;BME280;58635;51.198;6.010;2023-02-20T04:49:50;102278.09;;;9.74;63.05
70976;BME280;58635;51.198;6.010;2023-02-20T04:52:15;102283.25;;;9.74;62.77
70976;BME280;58635;51.198;6.010;2023-02-20T04:54:40;102286.34;;;9.78;63.06
70976;BME280;58635;51.198;6.010;2023-02-20T04:57:06;102269.88;;;9.79;62.86
70976;BME280;58635;51.198;6.010;2023-02-20T04:59:31;102269.72;;;9.80;62.75
70976;BME280;58635;51.198;6.010;2023-02-20T05:01:57;102269.72;;;9.80;62.56
70976;BME280;58635;51.198;6.010;2023-02-20T05:04:26;102261.97;;;9.80;62.67
70976;BME280;58635;51.198;6.010;2023-02-20T05:06:53;102268.91;;;9.80;62.73
70976;BME280;58635;51.198;6.010;2023-02-20T05:09:21;102266.00;;;9.75;62.78
70976;BME280;58635;51.198;6.010;2023-02-20T05:11:47;102272.13;;;9.74;62.71
70976;BME280;58635;51.198;6.010;2023-02-20T05:14:13;102277.28;;;9.74;62.81
70976;BME280;58635;51.198;6.010;2023-02-20T05:16:39;102265.03;;;9.76;62.83
70976;BME280;58635;51.198;6.010;2023-02-20T05:19:07;102267.44;;;9.77;62.54
70976;BME280;58635;51.198;6.010;2023-02-20T05:21:33;102280.53;;;9.76;62.53
70976;BME280;58635;51.198;6.010;2023-02-20T05:24:18;102283.69;;;9.70;62.73
70976;BME280;58635;51.198;6.010;2023-02-20T05:26:44;102284.00;;;9.66;62.98
70976;BME280;58635;51.198;6.010;2023-02-20T05:29:10;102284.16;;;9.65;62.71
70976;BME280;58635;51.198;6.010;2023-02-20T05:31:39;102280.13;;;9.62;62.89
70976;BME280;58635;51.198;6.010;2023-02-20T05:34:05;102284.63;;;9.60;62.87
70976;BME280;58635;51.198;6.010;2023-02-20T05:36:31;102287.31;;;9.59;63.03
70976;BME280;58635;51.198;6.010;2023-02-20T05:38:56;102282.31;;;9.57;63.27
70976;BME280;58635;51.198;6.010;2023-02-20T05:41:22;102276.06;;;9.60;63.15
70976;BME280;58635;51.198;6.010;2023-02-20T05:43:47;102278.19;;;9.64;63.00
70976;BME280;58635;51.198;6.010;2023-02-20T05:46:14;102272.72;;;9.67;62.88
70976;BME280;58635;51.198;6.010;2023-02-20T05:48:39;102274.19;;;9.70;62.88
70976;BME280;58635;51.198;6.010;2023-02-20T05:51:05;102272.56;;;9.69;63.02
70976;BME280;58635;51.198;6.010;2023-02-20T05:53:31;102261.25;;;9.70;62.99
70976;BME280;58635;51.198;6.010;2023-02-20T05:55:57;102272.13;;;9.74;63.05
70976;BME280;58635;51.198;6.010;2023-02-20T05:58:23;102275.13;;;9.69;63.02
70976;BME280;58635;51.198;6.010;2023-02-20T06:00:49;102271.75;;;9.68;62.99
70976;BME280;58635;51.198;6.010;2023-02-20T06:03:15;102270.78;;;9.70;63.18
70976;BME280;58635;51.198;6.010;2023-02-20T06:05:40;102273.75;;;9.75;63.00
70976;BME280;58635;51.198;6.010;2023-02-20T06:08:06;102273.75;;;9.75;62.96
70976;BME280;58635;51.198;6.010;2023-02-20T06:10:32;102264.53;;;9.72;62.96
70976;BME280;58635;51.198;6.010;2023-02-20T06:12:57;102276.31;;;9.75;63.10
70976;BME280;58635;51.198;6.010;2023-02-20T06:15:23;102281.50;;;9.75;63.00
70976;BME280;58635;51.198;6.010;2023-02-20T06:17:48;102277.13;;;9.75;63.05
70976;BME280;58635;51.198;6.010;2023-02-20T06:20:14;102273.44;;;9.78;62.97
70976;BME280;58635;51.198;6.010;2023-02-20T06:22:41;102280.22;;;9.79;63.08
70976;BME280;58635;51.198;6.010;2023-02-20T06:25:07;102287.16;;;9.78;63.12
70976;BME280;58635;51.198;6.010;2023-02-20T06:27:33;102287.31;;;9.77;63.12
70976;BME280;58635;51.198;6.010;2023-02-20T06:29:58;102289.09;;;9.76;63.08
70976;BME280;58635;51.198;6.010;2023-02-20T06:32:24;102274.75;;;9.82;63.01
70976;BME280;58635;51.198;6.010;2023-02-20T06:34:49;102282.66;;;9.80;63.17
70976;BME280;58635;51.198;6.010;2023-02-20T06:37:15;102281.56;;;9.83;63.06
70976;BME280;58635;51.198;6.010;2023-02-20T06:39:41;102293.34;;;9.85;63.12
70976;BME280;58635;51.198;6.010;2023-02-20T06:42:10;102283.53;;;9.89;62.95
70976;BME280;58635;51.198;6.010;2023-02-20T06:44:35;102279.16;;;9.89;63.04
70976;BME280;58635;51.198;6.010;2023-02-20T06:47:01;102287.72;;;9.90;63.00
70976;BME280;58635;51.198;6.010;2023-02-20T06:49:26;102290.16;;;9.91;63.00
70976;BME280;58635;51.198;6.010;2023-02-20T06:51:52;102290.97;;;9.92;63.20
70976;BME280;58635;51.198;6.010;2023-02-20T06:54:21;102288.91;;;9.95;63.02
70976;BME280;58635;51.198;6.010;2023-02-20T06:56:47;102291.50;;;9.95;62.98
70976;BME280;58635;51.198;6.010;2023-02-20T06:59:13;102290.81;;;9.93;63.00
70976;BME280;58635;51.198;6.010;2023-02-20T07:01:40;102292.13;;;9.98;62.91
70976;BME280;58635;51.198;6.010;2023-02-20T07:04:14;102286.66;;;10.01;62.79
70976;BME280;58635;51.198;6.010;2023-02-20T07:06:41;102281.03;;;10.05;62.61
70976;BME280;58635;51.198;6.010;2023-02-20T07:09:08;102284.13;;;10.09;62.66
70976;BME280;58635;51.198;6.010;2023-02-20T07:11:33;102276.22;;;10.10;62.62
70976;BME280;58635;51.198;6.010;2023-02-20T07:14:01;102280.25;;;10.13;62.77
70976;BME280;58635;51.198;6.010;2023-02-20T07:16:27;102280.91;;;10.15;62.51
70976;BME280;58635;51.198;6.010;2023-02-20T07:18:52;102279.13;;;10.15;62.38
70976;BME280;58635;51.198;6.010;2023-02-20T07:21:18;102281.88;;;10.14;62.61
70976;BME280;58635;51.198;6.010;2023-02-20T07:23:44;102285.59;;;10.11;62.59
70976;BME280;58635;51.198;6.010;2023-02-20T07:26:21;102280.59;;;10.10;62.53
70976;BME280;58635;51.198;6.010;2023-02-20T07:28:47;102292.38;;;10.12;62.50
70976;BME280;58635;51.198;6.010;2023-02-20T07:31:12;102290.44;;;10.14;62.64
70976;BME280;58635;51.198;6.010;2023-02-20T07:33:38;102300.47;;;10.17;62.60
70976;BME280;58635;51.198;6.010;2023-02-20T07:36:04;102294.75;;;10.23;62.42
70976;BME280;58635;51.198;6.010;2023-02-20T07:38:29;102292.66;;;10.27;62.33
70976;BME280;58635;51.198;6.010;2023-02-20T07:40:55;102302.72;;;10.30;62.30
70976;BME280;58635;51.198;6.010;2023-02-20T07:43:20;102303.19;;;10.34;62.16
70976;BME280;58635;51.198;6.010;2023-02-20T07:45:46;102295.13;;;10.37;62.17
70976;BME280;58635;51.198;6.010;2023-02-20T07:48:11;102295.63;;;10.40;62.23
70976;BME280;58635;51.198;6.010;2023-02-20T07:50:38;102293.72;;;10.42;61.99
70976;BME280;58635;51.198;6.010;2023-02-20T07:53:04;102297.91;;;10.43;61.98
70976;BME280;58635;51.198;6.010;2023-02-20T07:55:30;102291.13;;;10.42;61.97
70976;BME280;58635;51.198;6.010;2023-02-20T07:57:55;102295.34;;;10.43;62.08
70976;BME280;58635;51.198;6.010;2023-02-20T08:00:23;102296.78;;;10.46;61.94
70976;BME280;58635;51.198;6.010;2023-02-20T08:02:51;102285.81;;;10.52;61.91
70976;BME280;58635;51.198;6.010;2023-02-20T08:05:16;102289.72;;;10.56;61.90
70976;BME280;58635;51.198;6.010;2023-02-20T08:07:47;102289.06;;;10.62;61.84
70976;BME280;58635;51.198;6.010;2023-02-20T08:10:14;102280.69;;;10.68;61.54
70976;BME280;58635;51.198;6.010;2023-02-20T08:12:42;102293.31;;;10.71;61.54
70976;BME280;58635;51.198;6.010;2023-02-20T08:15:09;102294.94;;;10.72;61.35
70976;BME280;58635;51.198;6.010;2023-02-20T08:17:37;102293.31;;;10.71;61.12
70976;BME280;58635;51.198;6.010;2023-02-20T08:20:04;102290.56;;;10.73;61.37
70976;BME280;58635;51.198;6.010;2023-02-20T08:22:29;102298.81;;;10.76;61.44
70976;BME280;58635;51.198;6.010;2023-02-20T08:24:55;102304.53;;;10.80;61.23
70976;BME280;58635;51.198;6.010;2023-02-20T08:27:20;102302.56;;;10.82;61.25
70976;BME280;58635;51.198;6.010;2023-02-20T08:29:47;102300.00;;;10.82;61.13
70976;BME280;58635;51.198;6.010;2023-02-20T08:32:12;102294.97;;;10.80;61.12
70976;BME280;58635;51.198;6.010;2023-02-20T08:34:38;102285.28;;;10.82;61.32
70976;BME280;58635;51.198;6.010;2023-02-20T08:37:03;102293.34;;;10.88;61.06
70976;BME280;58635;51.198;6.010;2023-02-20T08:39:29;102294.03;;;10.90;61.03
70976;BME280;58635;51.198;6.010;2023-02-20T08:41:54;102293.56;;;10.94;60.95
70976;BME280;58635;51.198;6.010;2023-02-20T08:44:20;102301.00;;;10.97;60.92
70976;BME280;58635;51.198;6.010;2023-02-20T08:46:47;102294.53;;;11.01;60.92
70976;BME280;58635;51.198;6.010;2023-02-20T08:49:14;102299.41;;;11.04;60.63
70976;BME280;58635;51.198;6.010;2023-02-20T08:51:42;102295.19;;;11.03;60.91
70976;BME280;58635;51.198;6.010;2023-02-20T08:54:08;102291.94;;;11.09;60.84
70976;BME280;58635;51.198;6.010;2023-02-20T08:56:33;102284.53;;;11.15;60.70
70976;BME280;58635;51.198;6.010;2023-02-20T08:58:59;102285.66;;;11.20;60.76
70976;BME280;58635;51.198;6.010;2023-02-20T09:01:25;102274.00;;;11.24;60.43
70976;BME280;58635;51.198;6.010;2023-02-20T09:03:50;102284.88;;;11.28;60.37
70976;BME280;58635;51.198;6.010;2023-02-20T09:06:16;102281.78;;;11.32;60.24
70976;BME280;58635;51.198;6.010;2023-02-20T09:08:41;102281.31;;;11.37;60.46
70976;BME280;58635;51.198;6.010;2023-02-20T09:11:07;102292.31;;;11.39;60.14
70976;BME280;58635;51.198;6.010;2023-02-20T09:13:32;102290.03;;;11.44;60.25
70976;BME280;58635;51.198;6.010;2023-02-20T09:15:58;102287.78;;;11.49;59.90
70976;BME280;58635;51.198;6.010;2023-02-20T09:18:24;102281.47;;;11.52;60.01
70976;BME280;58635;51.198;6.010;2023-02-20T09:20:49;102289.06;;;11.53;59.93
70976;BME280;58635;51.198;6.010;2023-02-20T09:23:15;102290.69;;;11.54;60.01
70976;BME280;58635;51.198;6.010;2023-02-20T09:25:41;102285.19;;;11.57;59.62
70976;BME280;58635;51.198;6.010;2023-02-20T09:28:07;102290.53;;;11.56;59.71
70976;BME280;58635;51.198;6.010;2023-02-20T09:30:33;102287.75;;;11.57;59.73
70976;BME280;58635;51.198;6.010;2023-02-20T09:32:58;102298.47;;;11.62;59.50
70976;BME280;58635;51.198;6.010;2023-02-20T09:35:29;102292.31;;;11.63;59.45
70976;BME280;58635;51.198;6.010;2023-02-20T09:37:54;102284.53;;;11.63;59.71
70976;BME280;58635;51.198;6.010;2023-02-20T09:40:22;102297.16;;;11.66;59.61
70976;BME280;58635;51.198;6.010;2023-02-20T09:43:07;102293.94;;;11.73;59.53
70976;BME280;58635;51.198;6.010;2023-02-20T09:45:40;102288.75;;;11.73;59.40
70976;BME280;58635;51.198;6.010;2023-02-20T09:48:37;102298.31;;;11.80;59.34
70976;BME280;58635;51.198;6.010;2023-02-20T09:51:11;102287.94;;;11.80;59.43
70976;BME280;58635;51.198;6.010;2023-02-20T09:56:15;102286.63;;;11.92;58.91
70976;BME280;58635;51.198;6.010;2023-02-20T10:01:28;102285.19;;;11.90;59.04
70976;BME280;58635;51.198;6.010;2023-02-20T10:04:02;102292.78;;;11.91;59.04
70976;BME280;58635;51.198;6.010;2023-02-20T10:06:33;102289.72;;;11.96;58.99
70976;BME280;58635;51.198;6.010;2023-02-20T10:08:59;102282.41;;;11.99;59.04
70976;BME280;58635;51.198;6.010;2023-02-20T10:19:57;102281.25;;;12.10;58.66
70976;BME280;58635;51.198;6.010;2023-02-20T10:22:33;102277.34;;;12.14;58.62
70976;BME280;58635;51.198;6.010;2023-02-20T10:28:12;102279.28;;;12.12;58.56
70976;BME280;58635;51.198;6.010;2023-02-20T10:30:47;102279.94;;;12.14;58.66
70976;BME280;58635;51.198;6.010;2023-02-20T10:36:25;102269.22;;;12.17;58.36
70976;BME280;58635;51.198;6.010;2023-02-20T10:39:00;102266.66;;;12.09;58.74
70976;BME280;58635;51.198;6.010;2023-02-20T10:41:43;102256.47;;;12.08;58.69
70976;BME280;58635;51.198;6.010;2023-02-20T10:44:18;102251.91;;;12.10;58.66
70976;BME280;58635;51.198;6.010;2023-02-20T10:47:12;102261.44;;;12.17;58.85
70976;BME280;58635;51.198;6.010;2023-02-20T10:49:51;102262.91;;;12.20;58.71
70976;BME280;58635;51.198;6.010;2023-02-20T10:52:28;102263.53;;;12.22;58.43
70976;BME280;58635;51.198;6.010;2023-02-20T10:55:10;102251.56;;;12.21;58.30
70976;BME280;58635;51.198;6.010;2023-02-20T10:57:45;102255.25;;;12.18;58.66
70976;BME280;58635;51.198;6.010;2023-02-20T11:00:30;102255.41;;;12.25;58.63
70976;BME280;58635;51.198;6.010;2023-02-20T11:03:06;102264.47;;;12.29;58.66
70976;BME280;58635;51.198;6.010;2023-02-20T11:05:42;102253.09;;;12.30;58.57
70976;BME280;58635;51.198;6.010;2023-02-20T11:08:09;102261.69;;;12.30;58.50
70976;BME280;58635;51.198;6.010;2023-02-20T11:10:34;102268.38;;;12.33;58.36
70976;BME280;58635;51.198;6.010;2023-02-20T11:13:02;102271.75;;;12.34;58.78
70976;BME280;58635;51.198;6.010;2023-02-20T11:15:31;102275.81;;;12.36;58.64
70976;BME280;58635;51.198;6.010;2023-02-20T11:17:58;102268.81;;;12.37;58.70
70976;BME280;58635;51.198;6.010;2023-02-20T11:23:42;102259.28;;;12.29;58.27
70976;BME280;58635;51.198;6.010;2023-02-20T11:26:24;102260.94;;;12.22;58.48
70976;BME280;58635;51.198;6.010;2023-02-20T11:29:05;102253.53;;;12.11;58.71
70976;BME280;58635;51.198;6.010;2023-02-20T11:31:37;102243.97;;;12.11;59.03
70976;BME280;58635;51.198;6.010;2023-02-20T11:34:23;102233.25;;;12.14;58.77
70976;BME280;58635;51.198;6.010;2023-02-20T11:36:54;102239.22;;;12.15;58.78
70976;BME280;58635;51.198;6.010;2023-02-20T11:39:29;102235.50;;;12.17;58.93
70976;BME280;58635;51.198;6.010;2023-02-20T11:42:11;102239.69;;;12.18;59.10
70976;BME280;58635;51.198;6.010;2023-02-20T11:44:37;102233.53;;;12.19;58.94
70976;BME280;58635;51.198;6.010;2023-02-20T11:49:47;102234.03;;;12.23;59.09
70976;BME280;58635;51.198;6.010;2023-02-20T11:52:20;102223.47;;;12.24;58.85
70976;BME280;58635;51.198;6.010;2023-02-20T11:54:47;102221.50;;;12.26;58.94
70976;BME280;58635;51.198;6.010;2023-02-20T11:57:24;102228.47;;;12.34;58.71
70976;BME280;58635;51.198;6.010;2023-02-20T12:00:19;102228.63;;;12.33;58.73
70976;BME280;58635;51.198;6.010;2023-02-20T12:02:54;102232.69;;;12.35;58.70
70976;BME280;58635;51.198;6.010;2023-02-20T12:05:21;102232.03;;;12.33;58.95
70976;BME280;58635;51.198;6.010;2023-02-20T12:08:00;102227.66;;;12.34;58.97
70976;BME280;58635;51.198;6.010;2023-02-20T12:10:37;102220.16;;;12.39;58.76
70976;BME280;58635;51.198;6.010;2023-02-20T12:13:06;102208.34;;;12.36;58.82
70976;BME280;58635;51.198;6.010;2023-02-20T12:15:33;102212.59;;;12.29;59.00
70976;BME280;58635;51.198;6.010;2023-02-20T12:20:57;102210.50;;;12.24;59.35
70976;BME280;58635;51.198;6.010;2023-02-20T12:23:38;102198.00;;;12.28;59.08
70976;BME280;58635;51.198;6.010;2023-02-20T12:31:56;102193.78;;;12.27;59.36
70976;BME280;58635;51.198;6.010;2023-02-20T12:42:58;102186.81;;;12.27;59.42
70976;BME280;58635;51.198;6.010;2023-02-20T12:45:41;102186.19;;;12.25;59.59
70976;BME280;58635;51.198;6.010;2023-02-20T12:48:38;102198.63;;;12.30;59.64
70976;BME280;58635;51.198;6.010;2023-02-20T13:02:43;102174.28;;;12.31;59.49
70976;BME280;58635;51.198;6.010;2023-02-20T13:05:13;102179.16;;;12.34;59.76
70976;BME280;58635;51.198;6.010;2023-02-20T13:10:16;102175.25;;;12.38;59.63
70976;BME280;58635;51.198;6.010;2023-02-20T13:12:43;102169.88;;;12.40;59.62
70976;BME280;58635;51.198;6.010;2023-02-20T13:15:46;102167.78;;;12.43;59.37
70976;BME280;58635;51.198;6.010;2023-02-20T13:20:55;102159.50;;;12.40;59.41
70976;BME280;58635;51.198;6.010;2023-02-20T13:23:25;102152.34;;;12.42;59.63
70976;BME280;58635;51.198;6.010;2023-02-20T13:25:52;102135.66;;;12.44;59.52
70976;BME280;58635;51.198;6.010;2023-02-20T13:28:32;102117.81;;;12.41;59.80
70976;BME280;58635;51.198;6.010;2023-02-20T13:31:17;102114.41;;;12.41;59.83
70976;BME280;58635;51.198;6.010;2023-02-20T13:34:21;102103.56;;;12.37;59.91
70976;BME280;58635;51.198;6.010;2023-02-20T13:36:44;102093.56;;;12.34;60.04
70976;BME280;58635;51.198;6.010;2023-02-20T13:41:56;102085.19;;;12.24;60.71
70976;BME280;58635;51.198;6.010;2023-02-20T13:47:02;102070.78;;;12.21;60.80
70976;BME280;58635;51.198;6.010;2023-02-20T13:52:29;102073.56;;;12.20;61.18
70976;BME280;58635;51.198;6.010;2023-02-20T13:57:51;102052.91;;;12.26;60.81
70976;BME280;58635;51.198;6.010;2023-02-20T14:03:20;102049.28;;;12.36;60.53
70976;BME280;58635;51.198;6.010;2023-02-20T14:06:00;102051.56;;;12.30;60.85
70976;BME280;58635;51.198;6.010;2023-02-20T14:08:27;102037.63;;;12.32;61.07
70976;BME280;58635;51.198;6.010;2023-02-20T14:10:52;102027.34;;;12.38;60.58
70976;BME280;58635;51.198;6.010;2023-02-20T14:13:21;102034.34;;;12.38;60.74
70976;BME280;58635;51.198;6.010;2023-02-20T14:15:51;102035.13;;;12.38;60.74
70976;BME280;58635;51.198;6.010;2023-02-20T14:18:31;102039.00;;;12.42;60.47
70976;BME280;58635;51.198;6.010;2023-02-20T14:21:14;102044.72;;;12.38;60.60
70976;BME280;58635;51.198;6.010;2023-02-20T14:23:40;102045.16;;;12.41;60.36
70976;BME280;58635;51.198;6.010;2023-02-20T14:26:24;102034.38;;;12.52;59.74
70976;BME280;58635;51.198;6.010;2023-02-20T14:28:53;102035.47;;;12.58;59.68
70976;BME280;58635;51.198;6.010;2023-02-20T14:31:23;102047.09;;;12.62;59.72
70976;BME280;58635;51.198;6.010;2023-02-20T14:33:56;102044.34;;;12.64;59.56
70976;BME280;58635;51.198;6.010;2023-02-20T14:39:21;102046.91;;;12.64;59.45
70976;BME280;58635;51.198;6.010;2023-02-20T14:41:56;102056.00;;;12.68;59.47
70976;BME280;58635;51.198;6.010;2023-02-20T14:44:23;102045.63;;;12.68;59.58
70976;BME280;58635;51.198;6.010;2023-02-20T14:46:51;102059.47;;;12.75;59.61
70976;BME280;58635;51.198;6.010;2023-02-20T14:49:26;102056.06;;;12.74;59.47
70976;BME280;58635;51.198;6.010;2023-02-20T14:52:16;102062.88;;;12.75;59.24
70976;BME280;58635;51.198;6.010;2023-02-20T14:54:58;102058.50;;;12.76;59.37